Time;durP1;ratioP1;P1;durP2;ratioP2;P2;SDS_P1;SDS_P2;PMS_P1;PMS_P2;Temp;Humidity;BMP_temperature;BMP_pressure;BME280_temperature;BME280_humidity;BME280_pressure;Samples;Min_cycle;Max_cycle;Signal;HPM_P1;HPM_P2
2024/01/07 00:01:27;;;;;;;62.97;24.00;;;3.30;99.90;;;;;;5034475;28;20172;-78
2024/01/07 00:03:53;;;;;;;54.87;21.43;;;3.30;99.90;;;;;;5016587;28;20173;-79
2024/01/07 00:06:18;;;;;;;67.17;25.33;;;3.40;99.90;;;;;;5034370;28;20790;-78
2024/01/07 00:08:44;;;;;;;58.33;21.90;;;3.30;99.90;;;;;;5016616;28;20165;-78
2024/01/07 00:11:10;;;;;;;67.27;23.17;;;3.30;99.90;;;;;;5016686;28;20260;-79
2024/01/07 00:13:36;;;;;;;61.73;24.83;;;3.30;99.90;;;;;;5034349;28;20241;-79
2024/01/07 00:16:01;;;;;;;62.83;27.05;;;3.30;99.90;;;;;;5034644;28;20189;-80
2024/01/07 00:18:27;;;;;;;60.80;24.13;;;3.30;99.90;;;;;;5016774;28;20280;-79
2024/01/07 00:20:53;;;;;;;58.03;24.77;;;3.40;99.90;;;;;;5034182;28;20173;-79
2024/01/07 00:23:20;;;;;;;60.08;23.98;;;3.40;99.90;;;;;;5036104;28;20176;-78
2024/01/07 00:25:47;;;;;;;54.72;23.08;;;3.40;99.90;;;;;;5037969;28;20228;-78
2024/01/07 00:28:12;;;;;;;54.28;21.23;;;3.30;99.90;;;;;;5038596;28;20168;-79
2024/01/07 00:30:38;;;;;;;49.27;20.87;;;3.30;99.90;;;;;;5038496;28;20162;-79
2024/01/07 00:33:04;;;;;;;57.40;21.40;;;3.30;99.90;;;;;;5038084;28;20192;-79
2024/01/07 00:35:29;;;;;;;56.07;20.80;;;3.30;99.90;;;;;;5020509;28;20665;-79
2024/01/07 00:37:56;;;;;;;51.10;18.73;;;3.40;99.90;;;;;;5039005;28;20205;-79
2024/01/07 00:40:23;;;;;;;62.05;22.48;;;3.30;99.90;;;;;;5021468;28;20170;-80
2024/01/07 00:42:51;;;;;;;48.22;18.30;;;3.30;99.90;;;;;;5039241;28;20188;-78
2024/01/07 00:45:17;;;;;;;50.42;20.08;;;3.30;99.90;;;;;;5039288;28;20570;-78
2024/01/07 00:47:43;;;;;;;52.85;20.88;;;3.30;99.90;;;;;;5039291;28;20213;-80
2024/01/07 00:50:09;;;;;;;60.17;21.20;;;3.30;99.90;;;;;;5038498;28;20161;-79
2024/01/07 00:52:36;;;;;;;54.00;20.38;;;3.30;99.90;;;;;;5038443;28;20166;-78
2024/01/07 00:55:06;;;;;;;55.95;22.30;;;3.30;99.90;;;;;;5038342;28;20169;-80
2024/01/07 00:57:32;;;;;;;45.70;17.95;;;3.30;99.90;;;;;;5020735;28;20670;-80
2024/01/07 00:59:58;;;;;;;57.47;20.48;;;3.40;99.90;;;;;;5038450;28;20566;-79
2024/01/07 01:02:24;;;;;;;56.53;20.70;;;3.40;99.90;;;;;;5020791;28;20722;-80
2024/01/07 01:04:49;;;;;;;51.57;21.20;;;3.40;99.90;;;;;;5020194;28;20273;-80
2024/01/07 01:07:15;;;;;;;54.73;21.97;;;3.40;99.90;;;;;;5038529;28;20189;-80
2024/01/07 01:09:41;;;;;;;61.87;21.20;;;3.40;99.90;;;;;;5038191;28;20170;-80
2024/01/07 01:12:07;;;;;;;57.23;21.10;;;3.30;99.90;;;;;;5020323;28;20412;-80
2024/01/07 01:14:32;;;;;;;53.87;19.97;;;3.40;99.90;;;;;;5038275;28;20196;-80
2024/01/07 01:16:58;;;;;;;53.57;19.30;;;3.40;99.90;;;;;;5020353;28;20601;-80
2024/01/07 01:19:24;;;;;;;47.53;19.23;;;3.40;99.90;;;;;;5037857;28;20181;-79
2024/01/07 01:21:50;;;;;;;47.35;18.38;;;3.40;99.90;;;;;;5038054;28;20673;-80
2024/01/07 01:24:15;;;;;;;47.60;16.43;;;3.40;99.90;;;;;;5037928;28;20193;-80
2024/01/07 01:26:41;;;;;;;49.57;19.03;;;3.40;99.90;;;;;;5037916;28;20196;-80
2024/01/07 01:29:07;;;;;;;48.43;18.57;;;3.40;99.90;;;;;;5037971;28;20620;-78
2024/01/07 01:31:32;;;;;;;42.83;18.00;;;3.40;99.90;;;;;;5020044;28;20174;-80
2024/01/07 01:33:58;;;;;;;49.03;17.90;;;3.50;99.90;;;;;;5036787;28;20608;-79
2024/01/07 01:36:24;;;;;;;47.80;18.23;;;3.50;99.90;;;;;;5036994;28;20221;-80
2024/01/07 01:38:49;;;;;;;50.40;19.37;;;3.50;99.90;;;;;;5037668;28;20166;-79
2024/01/07 01:41:17;;;;;;;43.03;14.87;;;3.50;99.90;;;;;;5037614;28;20169;-80
2024/01/07 01:43:43;;;;;;;50.08;17.42;;;3.50;99.90;;;;;;5037314;28;20158;-80
2024/01/07 01:46:08;;;;;;;42.40;17.27;;;3.50;99.90;;;;;;5037246;28;20184;-80
2024/01/07 01:48:36;;;;;;;42.20;14.87;;;3.50;99.90;;;;;;5036861;28;20415;-80
2024/01/07 01:51:02;;;;;;;35.20;13.27;;;3.60;99.90;;;;;;5037117;28;20215;-80
2024/01/07 01:53:28;;;;;;;39.00;13.52;;;3.50;99.90;;;;;;5036979;28;20201;-79
2024/01/07 01:55:57;;;;;;;35.05;12.10;;;3.50;99.90;;;;;;5036837;28;20197;-80
2024/01/07 01:58:24;;;;;;;34.35;11.05;;;3.40;99.90;;;;;;5037001;28;20619;-80
2024/01/07 02:00:53;;;;;;;38.20;11.55;;;3.40;99.90;;;;;;5037192;28;20537;-80
2024/01/07 02:03:19;;;;;;;38.90;13.07;;;3.40;99.90;;;;;;5037056;28;20166;-79
2024/01/07 02:05:45;;;;;;;35.80;11.93;;;3.40;99.90;;;;;;5036596;28;20701;-79
2024/01/07 02:08:11;;;;;;;34.47;12.10;;;3.50;99.90;;;;;;5036618;28;20400;-79
2024/01/07 02:10:36;;;;;;;32.40;11.35;;;3.50;99.90;;;;;;5036427;28;20432;-80
2024/01/07 02:13:05;;;;;;;29.10;10.03;;;3.50;99.90;;;;;;5036857;28;20166;-80
2024/01/07 02:15:31;;;;;;;31.02;9.98;;;3.50;99.90;;;;;;5036823;28;20166;-79
2024/01/07 02:17:57;;;;;;;32.42;11.02;;;3.50;99.90;;;;;;5019073;28;20181;-80
2024/01/07 02:20:23;;;;;;;32.05;10.80;;;3.50;99.90;;;;;;5036566;28;20181;-80
2024/01/07 02:22:49;;;;;;;32.28;9.80;;;3.50;99.90;;;;;;5036966;28;20197;-79
2024/01/07 02:25:14;;;;;;;28.23;9.53;;;3.40;99.90;;;;;;5036342;28;20186;-80
2024/01/07 02:27:40;;;;;;;27.27;8.80;;;3.40;99.90;;;;;;5037003;28;20182;-80
2024/01/07 02:30:06;;;;;;;30.47;9.30;;;3.60;99.90;;;;;;5036577;28;20603;-80
2024/01/07 02:32:34;;;;;;;28.88;9.38;;;3.60;99.90;;;;;;5036421;28;20164;-80
2024/01/07 02:35:00;;;;;;;31.13;9.82;;;3.50;99.90;;;;;;5036826;28;20166;-80
2024/01/07 02:37:26;;;;;;;26.10;8.10;;;3.50;99.90;;;;;;5036550;28;20239;-80
2024/01/07 02:39:51;;;;;;;29.43;8.60;;;3.40;99.90;;;;;;5036455;28;20178;-80
2024/01/07 02:42:17;;;;;;;28.80;9.23;;;3.50;99.90;;;;;;5036430;28;20300;-80
2024/01/07 02:44:43;;;;;;;30.93;8.87;;;3.50;99.90;;;;;;5017939;28;20208;-80
2024/01/07 02:47:08;;;;;;;29.57;8.73;;;3.50;99.90;;;;;;5036194;28;20217;-80
2024/01/07 02:49:34;;;;;;;29.47;9.27;;;3.50;99.90;;;;;;5035861;28;20635;-79
2024/01/07 02:52:00;;;;;;;30.13;9.07;;;3.40;99.90;;;;;;5036512;28;20166;-80
2024/01/07 02:54:25;;;;;;;32.53;10.67;;;3.40;99.90;;;;;;5036219;28;20169;-80
2024/01/07 02:56:51;;;;;;;31.23;10.10;;;3.40;99.90;;;;;;5017940;28;20213;-80
2024/01/07 02:59:17;;;;;;;28.10;9.37;;;3.40;99.90;;;;;;5018481;28;20169;-79
2024/01/07 03:01:42;;;;;;;33.87;11.20;;;3.40;99.90;;;;;;5018146;28;20174;-79
2024/01/07 03:04:10;;;;;;;29.73;9.93;;;3.40;99.90;;;;;;5035775;28;20670;-79
2024/01/07 03:06:36;;;;;;;33.63;11.60;;;3.40;99.90;;;;;;5036120;28;20288;-81
2024/01/07 03:09:02;;;;;;;34.40;10.70;;;3.40;99.90;;;;;;5017699;28;20223;-80
2024/01/07 03:11:29;;;;;;;34.30;11.00;;;3.50;99.90;;;;;;5035784;28;20159;-79
2024/01/07 03:13:55;;;;;;;30.23;9.75;;;3.50;99.90;;;;;;5035882;28;20289;-80
2024/01/07 03:16:22;;;;;;;30.48;9.88;;;3.40;99.90;;;;;;5035360;28;20196;-79
2024/01/07 03:18:48;;;;;;;33.40;11.25;;;3.40;99.90;;;;;;5017623;28;20249;-79
2024/01/07 03:21:21;;;;;;;32.80;10.90;;;3.30;99.90;;;;;;5035225;28;20169;-78
2024/01/07 03:23:47;;;;;;;35.20;11.25;;;3.20;99.90;;;;;;5017795;28;20177;-80
2024/01/07 03:26:14;;;;;;;28.48;10.25;;;3.20;99.90;;;;;;5035566;28;20189;-79
2024/01/07 03:28:39;;;;;;;37.10;10.02;;;3.20;99.90;;;;;;5035271;28;20513;-79
2024/01/07 03:31:10;;;;;;;33.30;10.17;;;3.30;99.90;;;;;;5035563;28;20170;-80
2024/01/07 03:33:38;;;;;;;30.63;11.32;;;3.30;99.90;;;;;;5017676;28;20173;-79
2024/01/07 03:36:08;;;;;;;30.77;11.10;;;3.30;99.90;;;;;;5017057;28;20237;-79
2024/01/07 03:38:34;;;;;;;30.85;10.90;;;3.30;99.90;;;;;;5017169;28;20193;-78
2024/01/07 03:41:01;;;;;;;30.53;10.20;;;3.30;99.90;;;;;;5017234;28;20173;-78
2024/01/07 03:43:27;;;;;;;31.67;10.52;;;3.30;99.90;;;;;;5035090;28;20538;-78
2024/01/07 03:45:52;;;;;;;29.60;10.63;;;3.30;99.90;;;;;;5034850;28;20662;-80
2024/01/07 03:48:18;;;;;;;35.00;11.73;;;3.30;99.90;;;;;;5035524;28;20639;-80
2024/01/07 03:50:43;;;;;;;35.93;10.57;;;3.30;99.90;;;;;;5035461;28;20619;-80
2024/01/07 03:53:09;;;;;;;29.73;11.27;;;3.30;99.90;;;;;;5035235;28;20583;-78
2024/01/07 03:55:35;;;;;;;33.20;10.80;;;3.30;99.90;;;;;;5035069;28;20530;-79
2024/01/07 03:58:01;;;;;;;35.33;11.50;;;3.20;99.90;;;;;;5016703;28;20419;-79
2024/01/07 04:00:26;;;;;;;31.87;11.30;;;3.20;99.90;;;;;;5034781;28;20462;-78
2024/01/07 04:02:52;;;;;;;33.63;12.00;;;3.30;99.90;;;;;;5035110;28;20169;-80
2024/01/07 04:05:18;;;;;;;31.87;12.40;;;3.20;99.90;;;;;;5034932;28;20285;-80
2024/01/07 04:07:43;;;;;;;33.30;11.90;;;3.20;99.90;;;;;;5035301;28;20647;-79
2024/01/07 04:10:10;;;;;;;34.87;12.90;;;3.30;99.90;;;;;;5034721;28;20208;-80
2024/01/07 04:12:37;;;;;;;37.55;12.27;;;3.30;99.90;;;;;;5034831;28;20658;-79
2024/01/07 04:15:03;;;;;;;34.42;13.15;;;3.30;99.90;;;;;;5016956;28;20592;-80
2024/01/07 04:17:29;;;;;;;38.15;13.95;;;3.30;99.90;;;;;;5016939;28;20197;-80
2024/01/07 04:19:55;;;;;;;39.63;15.00;;;3.30;99.90;;;;;;5034503;28;20170;-80
2024/01/07 04:22:21;;;;;;;37.35;14.30;;;3.20;99.90;;;;;;5016695;28;20169;-80
2024/01/07 04:24:47;;;;;;;37.70;15.07;;;3.20;99.90;;;;;;5034635;28;20196;-80
2024/01/07 04:27:12;;;;;;;37.10;15.23;;;3.20;99.90;;;;;;5016781;28;20654;-79
2024/01/07 04:29:38;;;;;;;32.83;12.40;;;3.20;99.90;;;;;;5034804;28;20216;-78
2024/01/07 04:32:04;;;;;;;38.37;15.00;;;3.20;99.90;;;;;;5034668;28;20169;-80
2024/01/07 04:34:29;;;;;;;37.80;14.93;;;3.20;99.90;;;;;;5016585;28;20184;-80
2024/01/07 04:36:55;;;;;;;36.60;12.97;;;3.20;99.90;;;;;;5034197;28;20712;-79
2024/01/07 04:39:21;;;;;;;36.90;14.67;;;3.30;99.90;;;;;;5034847;28;20658;-80
2024/01/07 04:41:46;;;;;;;39.47;13.67;;;3.30;99.90;;;;;;5016658;28;20524;-80
2024/01/07 04:44:12;;;;;;;44.90;15.60;;;3.20;99.90;;;;;;5034598;28;20202;-79
2024/01/07 04:46:39;;;;;;;35.57;14.80;;;3.20;99.90;;;;;;5016821;28;20198;-80
2024/01/07 04:49:08;;;;;;;38.30;15.50;;;3.20;99.90;;;;;;5034391;28;20243;-79
2024/01/07 04:51:34;;;;;;;38.08;14.15;;;3.30;99.90;;;;;;5034255;28;20245;-80
2024/01/07 04:53:59;;;;;;;39.22;15.45;;;3.20;99.90;;;;;;5016190;28;20209;-80
2024/01/07 04:56:25;;;;;;;37.40;14.20;;;3.30;99.90;;;;;;5034485;28;20227;-78
2024/01/07 04:58:50;;;;;;;43.03;15.80;;;3.20;99.90;;;;;;5034400;28;20166;-79
2024/01/07 05:01:16;;;;;;;44.67;18.10;;;3.20;99.90;;;;;;5034641;28;20224;-79
2024/01/07 05:03:42;;;;;;;40.50;17.20;;;3.10;99.90;;;;;;5034742;28;20251;-80
2024/01/07 05:06:11;;;;;;;40.60;16.43;;;3.10;99.90;;;;;;5034402;28;20205;-78
2024/01/07 05:08:37;;;;;;;42.95;15.63;;;3.10;99.90;;;;;;5034155;28;20567;-79
2024/01/07 05:11:04;;;;;;;42.05;14.77;;;3.20;99.90;;;;;;5019286;28;20643;-80
2024/01/07 05:13:30;;;;;;;38.17;15.55;;;3.20;99.90;;;;;;5037650;28;20172;-80
2024/01/07 05:15:56;;;;;;;36.38;15.27;;;3.20;99.90;;;;;;5037555;28;20181;-78
2024/01/07 05:18:23;;;;;;;36.20;14.27;;;3.20;99.90;;;;;;5037568;28;20170;-79
2024/01/07 05:20:49;;;;;;;33.30;13.48;;;3.20;99.90;;;;;;5020007;28;20174;-80
2024/01/07 05:23:15;;;;;;;37.95;13.55;;;3.20;99.90;;;;;;5037485;28;20181;-80
2024/01/07 05:25:43;;;;;;;43.80;14.23;;;3.20;99.90;;;;;;5019617;28;20590;-79
2024/01/07 05:28:09;;;;;;;34.30;12.57;;;3.20;99.90;;;;;;5037926;28;20535;-79
2024/01/07 05:30:34;;;;;;;34.47;12.57;;;3.20;99.90;;;;;;5037286;28;20170;-79
2024/01/07 05:33:00;;;;;;;37.43;13.10;;;3.20;99.90;;;;;;5037420;28;20559;-80
2024/01/07 05:35:25;;;;;;;35.40;11.77;;;3.10;99.90;;;;;;5037329;28;20162;-79
2024/01/07 05:37:51;;;;;;;37.43;14.23;;;3.20;99.90;;;;;;5037535;28;20170;-78
2024/01/07 05:40:17;;;;;;;36.80;13.77;;;3.10;99.90;;;;;;5037599;28;20166;-80
2024/01/07 05:42:43;;;;;;;35.90;12.60;;;3.20;99.90;;;;;;5037509;28;20169;-80
2024/01/07 05:45:08;;;;;;;39.77;13.00;;;3.20;99.90;;;;;;5037404;28;20190;-78
2024/01/07 05:47:34;;;;;;;36.70;12.10;;;3.10;99.90;;;;;;5036926;28;20182;-80
2024/01/07 05:50:00;;;;;;;35.10;13.77;;;3.00;99.90;;;;;;5019546;28;20405;-79
2024/01/07 05:52:25;;;;;;;33.60;13.33;;;3.00;99.90;;;;;;5037226;28;20224;-79
2024/01/07 05:54:51;;;;;;;35.53;14.80;;;3.00;99.90;;;;;;5037359;28;20202;-78
2024/01/07 05:57:17;;;;;;;36.10;14.00;;;3.10;99.90;;;;;;5037070;28;20182;-80
2024/01/07 05:59:44;;;;;;;37.73;14.10;;;3.00;99.90;;;;;;5036893;28;20714;-79
2024/01/07 06:02:09;;;;;;;37.45;15.75;;;3.10;99.90;;;;;;5036998;28;20578;-78
2024/01/07 06:04:37;;;;;;;35.20;13.53;;;3.10;99.90;;;;;;5036924;28;20189;-79
2024/01/07 06:07:03;;;;;;;42.78;14.73;;;3.10;99.90;;;;;;5018919;28;20186;-78
2024/01/07 06:09:28;;;;;;;44.47;16.60;;;3.00;99.90;;;;;;5037061;28;20683;-80
2024/01/07 06:11:55;;;;;;;39.37;13.83;;;3.00;99.90;;;;;;5018889;28;20397;-80
2024/01/07 06:14:21;;;;;;;33.92;12.65;;;3.00;99.90;;;;;;5019049;28;20174;-80
2024/01/07 06:16:47;;;;;;;35.20;14.20;;;3.00;99.90;;;;;;5036767;28;20185;-80
2024/01/07 06:19:14;;;;;;;34.50;14.37;;;3.00;99.90;;;;;;5036429;28;20177;-79
2024/01/07 06:21:40;;;;;;;33.45;12.70;;;3.00;99.90;;;;;;5036984;28;20527;-79
2024/01/07 06:24:08;;;;;;;31.90;13.00;;;3.00;99.90;;;;;;5036985;28;20174;-79
2024/01/07 06:26:34;;;;;;;34.83;13.55;;;3.00;99.90;;;;;;5036539;28;20467;-80
2024/01/07 06:29:01;;;;;;;36.05;14.40;;;3.00;99.90;;;;;;5036345;28;20573;-79
2024/01/07 06:31:27;;;;;;;40.63;14.38;;;3.10;99.90;;;;;;5036741;28;20678;-79
2024/01/07 06:33:52;;;;;;;38.90;15.60;;;3.00;99.90;;;;;;5036761;28;20173;-80
2024/01/07 06:36:18;;;;;;;35.27;14.57;;;3.00;99.90;;;;;;5036336;28;20451;-80
2024/01/07 06:38:44;;;;;;;34.10;13.20;;;3.00;99.90;;;;;;5036285;28;20189;-78
2024/01/07 06:41:12;;;;;;;39.13;14.13;;;2.90;99.90;;;;;;5036000;28;20177;-80
2024/01/07 06:43:38;;;;;;;37.88;14.55;;;2.90;99.90;;;;;;5018599;28;20417;-79
2024/01/07 06:46:04;;;;;;;34.43;13.70;;;3.00;99.90;;;;;;5036072;28;20209;-80
2024/01/07 06:48:30;;;;;;;41.78;15.35;;;2.90;99.90;;;;;;5036395;28;20158;-79
2024/01/07 06:50:55;;;;;;;35.83;15.10;;;2.90;99.90;;;;;;5036217;28;20651;-78
2024/01/07 06:53:21;;;;;;;36.53;16.23;;;2.90;99.90;;;;;;5035996;28;20167;-79
2024/01/07 06:55:47;;;;;;;37.70;14.47;;;2.90;99.90;;;;;;5036057;28;20240;-79
2024/01/07 06:58:13;;;;;;;34.05;12.85;;;2.90;99.90;;;;;;5035587;28;20270;-79
2024/01/07 07:00:38;;;;;;;33.20;12.90;;;2.90;99.90;;;;;;5035714;28;20173;-80
2024/01/07 07:03:05;;;;;;;35.57;13.70;;;2.90;99.90;;;;;;5036311;28;20177;-79
2024/01/07 07:05:31;;;;;;;34.67;13.70;;;3.00;99.90;;;;;;5017534;28;20205;-79
2024/01/07 07:07:57;;;;;;;36.50;14.48;;;2.90;99.90;;;;;;5035575;28;20157;-79
2024/01/07 07:10:22;;;;;;;40.13;14.73;;;3.00;99.90;;;;;;5035562;28;20329;-79
2024/01/07 07:12:50;;;;;;;34.70;13.90;;;3.00;99.90;;;;;;5017691;28;20192;-80
2024/01/07 07:15:16;;;;;;;31.92;12.02;;;3.00;99.90;;;;;;5035836;28;20176;-80
2024/01/07 07:17:42;;;;;;;32.92;13.32;;;3.00;99.90;;;;;;5035484;28;20272;-79
2024/01/07 07:20:08;;;;;;;41.13;13.80;;;3.00;99.90;;;;;;5035649;28;20162;-80
2024/01/07 07:22:34;;;;;;;37.50;13.90;;;3.00;99.90;;;;;;5035332;28;20170;-80
2024/01/07 07:25:00;;;;;;;35.90;13.43;;;3.00;99.90;;;;;;5035222;28;20228;-79
2024/01/07 07:27:26;;;;;;;33.50;12.63;;;3.00;99.90;;;;;;5035531;28;20192;-79
2024/01/07 07:29:52;;;;;;;37.40;12.90;;;2.90;99.90;;;;;;5017599;28;20257;-79
2024/01/07 07:32:18;;;;;;;35.73;14.70;;;3.00;99.90;;;;;;5016807;28;20189;-80
2024/01/07 07:34:43;;;;;;;35.22;13.63;;;3.00;99.90;;;;;;5017566;28;20182;-79
2024/01/07 07:37:09;;;;;;;36.27;14.37;;;3.00;99.90;;;;;;5035518;28;20182;-80
2024/01/07 07:39:35;;;;;;;35.45;13.25;;;3.00;99.90;;;;;;5035111;28;20172;-80
2024/01/07 07:42:01;;;;;;;35.33;14.30;;;3.00;99.90;;;;;;5035504;28;20181;-80
2024/01/07 07:44:27;;;;;;;37.70;14.63;;;3.00;99.90;;;;;;5035775;28;20447;-80
2024/01/07 07:46:52;;;;;;;32.00;12.70;;;3.00;99.90;;;;;;5035803;28;20372;-79
2024/01/07 07:49:18;;;;;;;31.63;13.07;;;2.90;99.90;;;;;;5035395;28;20709;-80
2024/01/07 07:51:44;;;;;;;32.83;12.23;;;2.90;99.90;;;;;;5034689;28;20162;-79
2024/01/07 07:54:09;;;;;;;32.77;11.40;;;2.90;99.90;;;;;;5035647;28;20654;-79
2024/01/07 07:56:35;;;;;;;32.90;12.50;;;3.00;99.90;;;;;;5034953;28;20976;-79
2024/01/07 07:59:02;;;;;;;35.33;11.57;;;3.00;99.90;;;;;;5034863;28;20400;-78
2024/01/07 08:01:28;;;;;;;30.23;12.20;;;3.00;99.90;;;;;;5017493;28;20826;-80
2024/01/07 08:03:54;;;;;;;31.23;11.70;;;2.90;99.90;;;;;;5035067;28;20193;-81
2024/01/07 08:06:20;;;;;;;31.87;12.20;;;2.90;99.90;;;;;;5035085;28;20942;-79
2024/01/07 08:08:45;;;;;;;35.70;12.20;;;3.00;99.90;;;;;;5017797;28;20400;-81
2024/01/07 08:11:11;;;;;;;30.67;11.53;;;3.00;99.90;;;;;;5035308;28;20185;-81
2024/01/07 08:13:38;;;;;;;32.43;12.83;;;3.00;99.90;;;;;;5034787;28;20158;-79
2024/01/07 08:16:08;;;;;;;31.10;11.50;;;3.00;99.90;;;;;;5034845;28;20704;-79
2024/01/07 08:18:34;;;;;;;29.63;12.32;;;2.90;99.90;;;;;;5035077;28;20185;-80
2024/01/07 08:21:00;;;;;;;31.53;12.47;;;2.90;99.90;;;;;;5035097;28;20170;-80
2024/01/07 08:23:25;;;;;;;32.20;12.88;;;2.90;99.90;;;;;;5034675;28;20166;-79
2024/01/07 08:25:51;;;;;;;33.80;12.30;;;2.90;99.90;;;;;;5034200;28;20257;-80
2024/01/07 08:28:17;;;;;;;28.57;11.10;;;3.00;99.90;;;;;;5035164;28;20624;-80
2024/01/07 08:30:44;;;;;;;32.20;13.15;;;2.90;99.90;;;;;;5034741;28;20173;-80
2024/01/07 08:33:10;;;;;;;32.08;11.77;;;3.00;99.90;;;;;;5034559;28;20212;-79
2024/01/07 08:35:36;;;;;;;30.85;12.35;;;2.90;99.90;;;;;;5034517;28;20280;-80
2024/01/07 08:38:05;;;;;;;32.65;11.40;;;3.00;99.90;;;;;;5034546;28;20170;-80
2024/01/07 08:40:31;;;;;;;32.75;12.80;;;2.90;99.90;;;;;;5016593;28;20170;-80
2024/01/07 08:42:57;;;;;;;33.43;12.03;;;2.80;99.90;;;;;;5016484;28;20273;-79
2024/01/07 08:45:22;;;;;;;29.87;10.60;;;2.90;99.90;;;;;;5038223;28;20440;-80
2024/01/07 08:47:48;;;;;;;32.37;11.83;;;3.00;99.90;;;;;;5038349;28;20181;-80
2024/01/07 08:50:14;;;;;;;31.20;12.60;;;3.00;99.90;;;;;;5038382;28;20162;-80
2024/01/07 08:52:40;;;;;;;34.28;13.45;;;2.80;99.90;;;;;;5038589;28;20623;-79
2024/01/07 08:55:07;;;;;;;31.07;11.70;;;2.90;99.90;;;;;;5038037;28;20204;-80
2024/01/07 08:57:33;;;;;;;35.97;13.18;;;2.90;99.90;;;;;;5020504;28;20204;-79
2024/01/07 08:59:59;;;;;;;31.00;12.60;;;2.80;99.90;;;;;;5037911;28;20200;-79
2024/01/07 09:02:25;;;;;;;31.03;12.40;;;2.80;99.90;;;;;;5037823;28;20165;-80
2024/01/07 09:04:51;;;;;;;32.75;12.95;;;2.90;99.90;;;;;;5038192;28;20662;-80
2024/01/07 09:07:19;;;;;;;34.17;12.82;;;2.80;99.90;;;;;;5037415;28;20218;-80
2024/01/07 09:09:44;;;;;;;35.83;12.68;;;2.60;99.90;;;;;;5037867;28;20166;-79
2024/01/07 09:12:10;;;;;;;35.13;12.13;;;2.60;99.90;;;;;;5037719;28;20508;-79
2024/01/07 09:14:38;;;;;;;31.50;12.10;;;2.70;99.90;;;;;;5037560;28;20916;-80
2024/01/07 09:17:04;;;;;;;34.28;13.15;;;2.80;99.90;;;;;;5037265;28;20435;-79
2024/01/07 09:19:29;;;;;;;35.47;13.73;;;2.80;99.90;;;;;;5037921;28;20634;-79
2024/01/07 09:21:55;;;;;;;38.93;13.10;;;2.80;99.90;;;;;;5019795;28;20642;-79
2024/01/07 09:24:21;;;;;;;35.90;14.77;;;2.90;99.90;;;;;;5036769;28;20197;-79
2024/01/07 09:26:46;;;;;;;35.17;13.60;;;2.80;99.90;;;;;;5037368;28;20182;-79
2024/01/07 09:29:13;;;;;;;38.17;13.97;;;2.70;99.90;;;;;;5037311;28;20162;-79
2024/01/07 09:31:39;;;;;;;36.08;12.98;;;2.70;99.90;;;;;;5037310;28;20153;-78
2024/01/07 09:34:06;;;;;;;35.23;12.97;;;2.70;99.90;;;;;;5036999;28;20162;-79
2024/01/07 09:36:32;;;;;;;35.67;12.57;;;2.70;99.90;;;;;;5037162;28;20424;-80
2024/01/07 09:38:58;;;;;;;32.08;12.10;;;2.80;99.90;;;;;;5036632;28;20165;-79
2024/01/07 09:41:24;;;;;;;33.80;13.00;;;2.80;99.90;;;;;;5036943;28;20697;-80
2024/01/07 09:43:53;;;;;;;35.93;13.43;;;2.80;99.90;;;;;;5018710;28;20249;-80
2024/01/07 09:46:19;;;;;;;34.42;13.13;;;2.80;99.90;;;;;;5036921;28;20689;-80
2024/01/07 09:48:44;;;;;;;33.07;13.43;;;2.90;99.90;;;;;;5018733;28;20178;-80
2024/01/07 09:51:11;;;;;;;32.23;11.67;;;2.90;99.90;;;;;;5036591;28;20415;-79
2024/01/07 09:53:42;;;;;;;33.25;11.07;;;2.90;99.90;;;;;;5018599;28;20169;-79
2024/01/07 09:56:22;;;;;;;29.30;10.00;;;2.80;99.90;;;;;;5035836;28;20213;-80
2024/01/07 09:58:49;;;;;;;34.60;11.60;;;2.80;99.90;;;;;;5036388;28;20154;-79
2024/01/07 10:01:18;;;;;;;29.25;10.30;;;2.80;99.90;;;;;;5018508;28;20261;-80
2024/01/07 10:03:44;;;;;;;29.60;10.00;;;2.80;99.90;;;;;;5036235;28;20594;-79
2024/01/07 10:06:11;;;;;;;27.73;9.32;;;2.70;99.90;;;;;;5036943;28;20212;-79
2024/01/07 10:08:37;;;;;;;26.50;8.57;;;2.80;99.90;;;;;;5018121;28;20170;-80
2024/01/07 10:11:04;;;;;;;27.50;9.60;;;2.80;99.90;;;;;;5036203;28;20185;-79
2024/01/07 10:13:31;;;;;;;28.02;8.48;;;2.80;99.90;;;;;;5035849;28;20207;-79
2024/01/07 10:15:56;;;;;;;25.70;8.90;;;2.80;99.90;;;;;;5036169;28;20633;-79
2024/01/07 10:18:22;;;;;;;24.47;8.07;;;2.80;99.90;;;;;;5036178;28;20245;-79
2024/01/07 10:20:48;;;;;;;26.60;8.93;;;2.90;99.90;;;;;;5036555;28;20162;-79
2024/01/07 10:23:19;;;;;;;28.37;9.17;;;2.90;99.90;;;;;;5036276;28;20408;-79
2024/01/07 10:25:45;;;;;;;31.15;10.10;;;2.90;99.90;;;;;;5035508;28;20174;-79
2024/01/07 10:28:11;;;;;;;30.00;9.80;;;2.90;99.90;;;;;;5035868;28;20220;-80
2024/01/07 10:30:40;;;;;;;27.27;10.90;;;2.90;99.90;;;;;;5035761;28;20166;-80
2024/01/07 10:33:07;;;;;;;27.05;9.93;;;2.90;99.90;;;;;;5035593;28;20166;-79
2024/01/07 10:35:34;;;;;;;29.50;10.98;;;2.90;99.90;;;;;;5035278;28;20277;-79
2024/01/07 10:38:03;;;;;;;29.90;10.77;;;2.90;99.90;;;;;;5035722;28;20169;-79
2024/01/07 10:40:30;;;;;;;28.20;9.65;;;2.90;99.90;;;;;;5035418;28;20658;-79
2024/01/07 10:42:57;;;;;;;25.05;9.57;;;2.80;99.90;;;;;;5035689;28;20307;-79
2024/01/07 10:45:23;;;;;;;25.95;9.77;;;2.80;99.90;;;;;;5035529;28;20196;-79
2024/01/07 10:47:53;;;;;;;24.53;9.07;;;2.70;99.90;;;;;;5035368;28;20217;-79
2024/01/07 10:50:19;;;;;;;27.98;9.40;;;2.70;99.90;;;;;;5018743;28;20169;-80
2024/01/07 10:52:59;;;;;;;26.35;8.88;;;2.70;99.90;;;;;;5018089;28;20272;-79
2024/01/07 10:55:29;;;;;;;27.00;10.00;;;2.70;99.90;;;;;;5035559;28;20619;-79
2024/01/07 10:57:57;;;;;;;27.80;9.50;;;2.80;99.90;;;;;;5035574;28;20288;-79
2024/01/07 11:00:22;;;;;;;30.55;10.50;;;2.70;99.90;;;;;;5035622;28;20349;-80
2024/01/07 11:02:56;;;;;;;27.30;9.43;;;2.70;99.90;;;;;;5035399;28;20635;-81
2024/01/07 11:05:54;;;;;;;26.85;9.80;;;2.80;99.90;;;;;;5035242;28;20220;-80
2024/01/07 11:08:26;;;;;;;27.15;9.07;;;2.70;99.90;;;;;;5034858;28;20181;-79
2024/01/07 11:11:04;;;;;;;26.80;9.93;;;2.70;99.90;;;;;;5035136;28;20150;-79
2024/01/07 11:13:38;;;;;;;28.90;9.93;;;2.80;99.90;;;;;;5036438;28;20146;-80
2024/01/07 11:16:10;;;;;;;29.92;10.90;;;2.80;99.90;;;;;;5035938;28;20212;-80
2024/01/07 11:18:45;;;;;;;26.92;9.85;;;2.80;99.90;;;;;;5036050;28;20161;-81
2024/01/07 11:21:20;;;;;;;28.60;9.95;;;2.80;99.90;;;;;;5035638;28;20232;-79
2024/01/07 11:23:46;;;;;;;27.88;10.07;;;2.70;99.90;;;;;;5017469;28;20534;-79
2024/01/07 11:26:12;;;;;;;28.17;9.57;;;2.80;99.90;;;;;;5035003;28;20198;-80
2024/01/07 11:28:54;;;;;;;30.05;10.95;;;2.70;99.90;;;;;;5035168;28;20177;-80
2024/01/07 11:31:21;;;;;;;30.08;11.38;;;2.80;99.90;;;;;;5035324;28;20146;-79
2024/01/07 11:33:49;;;;;;;26.50;10.40;;;2.70;99.90;;;;;;5034951;28;20196;-80
2024/01/07 11:36:16;;;;;;;29.60;10.20;;;2.80;99.90;;;;;;5035091;28;20186;-80
2024/01/07 11:38:43;;;;;;;28.27;11.43;;;2.80;99.90;;;;;;5035520;28;20162;-78
2024/01/07 11:41:12;;;;;;;29.67;10.23;;;2.90;99.90;;;;;;5017675;28;20176;-81
2024/01/07 11:43:37;;;;;;;32.08;11.60;;;2.90;99.90;;;;;;5035543;28;20146;-80
2024/01/07 11:46:03;;;;;;;28.30;9.83;;;2.80;99.90;;;;;;5035377;28;20236;-80
2024/01/07 11:48:29;;;;;;;29.57;11.23;;;2.90;99.90;;;;;;5034699;28;20216;-81
2024/01/07 11:50:54;;;;;;;31.30;11.07;;;2.80;99.90;;;;;;5035325;28;20543;-80
2024/01/07 11:53:20;;;;;;;30.40;10.30;;;2.80;99.90;;;;;;5035001;28;20531;-79
2024/01/07 11:55:47;;;;;;;33.23;12.83;;;2.80;99.90;;;;;;5017251;28;20170;-79
2024/01/07 11:58:12;;;;;;;30.65;11.60;;;2.80;99.90;;;;;;5034213;28;20408;-80
2024/01/07 12:00:38;;;;;;;28.37;11.10;;;2.80;99.90;;;;;;5035401;28;20162;-79
2024/01/07 12:03:06;;;;;;;27.97;10.03;;;2.80;99.90;;;;;;5035054;28;20735;-80
2024/01/07 12:05:32;;;;;;;26.17;10.80;;;2.80;99.90;;;;;;5034314;28;20311;-81
2024/01/07 12:07:59;;;;;;;30.30;11.53;;;2.80;99.90;;;;;;5034364;28;20627;-79
2024/01/07 12:10:25;;;;;;;31.17;11.80;;;2.70;99.90;;;;;;5034639;28;20192;-80
2024/01/07 12:12:51;;;;;;;32.57;12.43;;;2.60;99.90;;;;;;5034244;28;20195;-80
2024/01/07 12:15:18;;;;;;;35.63;11.07;;;2.60;99.90;;;;;;5034937;28;20169;-80
2024/01/07 12:17:58;;;;;;;29.45;10.48;;;2.50;99.90;;;;;;5034012;28;20268;-79
2024/01/07 12:20:24;;;;;;;30.88;11.35;;;2.60;99.90;;;;;;5034044;28;20200;-80
2024/01/07 12:22:50;;;;;;;30.95;11.35;;;2.50;99.90;;;;;;5034205;28;20189;-79
2024/01/07 12:25:22;;;;;;;30.33;11.03;;;2.50;99.90;;;;;;5033971;28;20186;-79
2024/01/07 12:27:52;;;;;;;25.90;10.77;;;2.50;99.90;;;;;;5016404;28;20271;-79
2024/01/07 12:30:20;;;;;;;26.52;10.07;;;2.50;99.90;;;;;;5033950;28;20208;-80
2024/01/07 12:32:46;;;;;;;27.85;10.77;;;2.50;99.90;;;;;;5016247;28;20539;-80
2024/01/07 12:35:12;;;;;;;30.00;10.80;;;2.50;99.90;;;;;;5016434;28;20174;-79